sensor_id;sensor_type;location;lat;lon;timestamp;P1;durP1;ratioP1;P2;durP2;ratioP2
6523;SDS011;3295;38.928;-77.052;2022-07-15T00:02:08;6.07;;;4.97;;
6523;SDS011;3295;38.928;-77.052;2022-07-15T00:04:37;6.22;;;4.47;;
6523;SDS011;3295;38.928;-77.052;2022-07-15T00:07:05;9.05;;;4.88;;
6523;SDS011;3295;38.928;-77.052;2022-07-15T00:09:33;6.03;;;4.57;;
6523;SDS011;3295;38.928;-77.052;2022-07-15T00:12:17;6.13;;;4.70;;
6523;SDS011;3295;38.928;-77.052;2022-07-15T00:14:45;6.07;;;4.63;;
6523;SDS011;3295;38.928;-77.052;2022-07-15T00:17:12;8.63;;;5.38;;
6523;SDS011;3295;38.928;-77.052;2022-07-15T00:19:41;6.00;;;4.90;;
6523;SDS011;3295;38.928;-77.052;2022-07-15T00:22:08;5.20;;;4.50;;
6523;SDS011;3295;38.928;-77.052;2022-07-15T00:24:35;6.33;;;4.97;;
6523;SDS011;3295;38.928;-77.052;2022-07-15T00:27:03;6.23;;;4.73;;
6523;SDS011;3295;38.928;-77.052;2022-07-15T00:29:30;6.20;;;4.80;;
6523;SDS011;3295;38.928;-77.052;2022-07-15T00:31:58;9.53;;;5.00;;
6523;SDS011;3295;38.928;-77.052;2022-07-15T00:34:25;6.93;;;4.80;;
6523;SDS011;3295;38.928;-77.052;2022-07-15T00:36:54;6.50;;;4.87;;
6523;SDS011;3295;38.928;-77.052;2022-07-15T00:39:21;5.77;;;4.73;;
6523;SDS011;3295;38.928;-77.052;2022-07-15T00:41:48;6.50;;;4.53;;
6523;SDS011;3295;38.928;-77.052;2022-07-15T00:44:15;5.53;;;4.30;;
6523;SDS011;3295;38.928;-77.052;2022-07-15T00:46:43;6.90;;;4.93;;
6523;SDS011;3295;38.928;-77.052;2022-07-15T00:49:10;7.00;;;4.87;;
6523;SDS011;3295;38.928;-77.052;2022-07-15T00:51:38;6.00;;;5.07;;
6523;SDS011;3295;38.928;-77.052;2022-07-15T00:54:09;6.37;;;5.00;;
6523;SDS011;3295;38.928;-77.052;2022-07-15T00:56:36;6.17;;;5.10;;
6523;SDS011;3295;38.928;-77.052;2022-07-15T00:59:05;7.73;;;5.20;;
6523;SDS011;3295;38.928;-77.052;2022-07-15T01:01:32;7.17;;;5.40;;
6523;SDS011;3295;38.928;-77.052;2022-07-15T01:04:01;9.00;;;5.20;;
6523;SDS011;3295;38.928;-77.052;2022-07-15T01:06:29;6.10;;;5.23;;
6523;SDS011;3295;38.928;-77.052;2022-07-15T01:08:56;7.13;;;5.23;;
6523;SDS011;3295;38.928;-77.052;2022-07-15T01:11:25;7.70;;;5.27;;
6523;SDS011;3295;38.928;-77.052;2022-07-15T01:13:56;7.13;;;5.37;;
6523;SDS011;3295;38.928;-77.052;2022-07-15T01:16:23;7.10;;;4.80;;
6523;SDS011;3295;38.928;-77.052;2022-07-15T01:18:50;6.00;;;5.03;;
6523;SDS011;3295;38.928;-77.052;2022-07-15T01:21:19;6.83;;;5.23;;
6523;SDS011;3295;38.928;-77.052;2022-07-15T01:23:46;9.43;;;5.43;;
6523;SDS011;3295;38.928;-77.052;2022-07-15T01:26:14;6.27;;;5.17;;
6523;SDS011;3295;38.928;-77.052;2022-07-15T01:28:41;8.93;;;5.50;;
6523;SDS011;3295;38.928;-77.052;2022-07-15T01:31:08;7.47;;;5.30;;
6523;SDS011;3295;38.928;-77.052;2022-07-15T01:33:36;8.97;;;5.43;;
6523;SDS011;3295;38.928;-77.052;2022-07-15T01:36:04;7.70;;;5.40;;
6523;SDS011;3295;38.928;-77.052;2022-07-15T01:38:33;6.50;;;5.10;;
6523;SDS011;3295;38.928;-77.052;2022-07-15T01:41:01;7.37;;;5.47;;
6523;SDS011;3295;38.928;-77.052;2022-07-15T01:43:29;8.10;;;5.50;;
6523;SDS011;3295;38.928;-77.052;2022-07-15T01:45:56;7.87;;;5.50;;
6523;SDS011;3295;38.928;-77.052;2022-07-15T01:48:24;7.63;;;5.17;;
6523;SDS011;3295;38.928;-77.052;2022-07-15T01:51:08;7.43;;;5.67;;
6523;SDS011;3295;38.928;-77.052;2022-07-15T01:53:37;11.27;;;7.03;;
6523;SDS011;3295;38.928;-77.052;2022-07-15T01:56:05;8.33;;;5.63;;
6523;SDS011;3295;38.928;-77.052;2022-07-15T01:58:32;7.40;;;5.80;;
6523;SDS011;3295;38.928;-77.052;2022-07-15T02:01:00;6.93;;;5.47;;
6523;SDS011;3295;38.928;-77.052;2022-07-15T02:03:27;7.23;;;5.60;;
6523;SDS011;3295;38.928;-77.052;2022-07-15T02:05:54;7.97;;;5.63;;
6523;SDS011;3295;38.928;-77.052;2022-07-15T02:08:21;7.47;;;5.93;;
6523;SDS011;3295;38.928;-77.052;2022-07-15T02:10:50;6.97;;;5.63;;
6523;SDS011;3295;38.928;-77.052;2022-07-15T02:13:17;8.03;;;6.00;;
6523;SDS011;3295;38.928;-77.052;2022-07-15T02:15:44;8.50;;;5.70;;
6523;SDS011;3295;38.928;-77.052;2022-07-15T02:18:12;7.93;;;6.07;;
6523;SDS011;3295;38.928;-77.052;2022-07-15T02:20:39;8.43;;;5.63;;
6523;SDS011;3295;38.928;-77.052;2022-07-15T02:23:06;11.10;;;5.70;;
6523;SDS011;3295;38.928;-77.052;2022-07-15T02:25:35;8.60;;;5.70;;
6523;SDS011;3295;38.928;-77.052;2022-07-15T02:28:04;9.77;;;6.10;;
6523;SDS011;3295;38.928;-77.052;2022-07-15T02:30:32;9.87;;;5.43;;
6523;SDS011;3295;38.928;-77.052;2022-07-15T02:33:00;7.60;;;5.90;;
6523;SDS011;3295;38.928;-77.052;2022-07-15T02:35:28;9.23;;;5.73;;
6523;SDS011;3295;38.928;-77.052;2022-07-15T02:37:55;7.30;;;5.43;;
6523;SDS011;3295;38.928;-77.052;2022-07-15T02:40:22;7.73;;;5.70;;
6523;SDS011;3295;38.928;-77.052;2022-07-15T02:42:50;9.27;;;5.90;;
6523;SDS011;3295;38.928;-77.052;2022-07-15T02:45:19;10.07;;;5.70;;
6523;SDS011;3295;38.928;-77.052;2022-07-15T02:47:47;8.93;;;6.00;;
6523;SDS011;3295;38.928;-77.052;2022-07-15T02:50:15;8.37;;;5.90;;
6523;SDS011;3295;38.928;-77.052;2022-07-15T02:52:42;8.07;;;5.63;;
6523;SDS011;3295;38.928;-77.052;2022-07-15T02:55:09;7.90;;;5.73;;
6523;SDS011;3295;38.928;-77.052;2022-07-15T02:57:37;10.07;;;5.70;;
6523;SDS011;3295;38.928;-77.052;2022-07-15T03:00:05;8.37;;;6.27;;
6523;SDS011;3295;38.928;-77.052;2022-07-15T03:02:35;9.27;;;5.93;;
6523;SDS011;3295;38.928;-77.052;2022-07-15T03:05:02;10.57;;;5.97;;
6523;SDS011;3295;38.928;-77.052;2022-07-15T03:07:29;15.87;;;8.77;;
6523;SDS011;3295;38.928;-77.052;2022-07-15T03:09:57;11.53;;;6.43;;
6523;SDS011;3295;38.928;-77.052;2022-07-15T03:12:25;9.27;;;5.70;;
6523;SDS011;3295;38.928;-77.052;2022-07-15T03:14:52;8.70;;;5.53;;
6523;SDS011;3295;38.928;-77.052;2022-07-15T03:17:19;7.27;;;5.60;;
6523;SDS011;3295;38.928;-77.052;2022-07-15T03:19:48;8.60;;;5.83;;
6523;SDS011;3295;38.928;-77.052;2022-07-15T03:22:15;10.27;;;6.50;;
6523;SDS011;3295;38.928;-77.052;2022-07-15T03:24:42;10.17;;;6.57;;
6523;SDS011;3295;38.928;-77.052;2022-07-15T03:27:10;8.77;;;6.27;;
6523;SDS011;3295;38.928;-77.052;2022-07-15T03:29:37;8.33;;;5.90;;
6523;SDS011;3295;38.928;-77.052;2022-07-15T03:32:04;7.57;;;5.60;;
6523;SDS011;3295;38.928;-77.052;2022-07-15T03:34:32;8.80;;;6.30;;
6523;SDS011;3295;38.928;-77.052;2022-07-15T03:37:01;10.80;;;6.57;;
6523;SDS011;3295;38.928;-77.052;2022-07-15T03:39:28;9.80;;;6.20;;
6523;SDS011;3295;38.928;-77.052;2022-07-15T03:41:55;9.73;;;5.97;;
6523;SDS011;3295;38.928;-77.052;2022-07-15T03:44:23;8.97;;;6.47;;
6523;SDS011;3295;38.928;-77.052;2022-07-15T03:46:50;10.13;;;5.80;;
6523;SDS011;3295;38.928;-77.052;2022-07-15T03:49:17;8.27;;;6.00;;
6523;SDS011;3295;38.928;-77.052;2022-07-15T03:51:44;10.93;;;6.37;;
6523;SDS011;3295;38.928;-77.052;2022-07-15T03:54:13;10.20;;;5.60;;
6523;SDS011;3295;38.928;-77.052;2022-07-15T03:56:40;8.63;;;6.23;;
6523;SDS011;3295;38.928;-77.052;2022-07-15T03:59:07;8.63;;;6.50;;
6523;SDS011;3295;38.928;-77.052;2022-07-15T04:01:34;11.60;;;6.67;;
6523;SDS011;3295;38.928;-77.052;2022-07-15T04:04:02;7.93;;;6.20;;
6523;SDS011;3295;38.928;-77.052;2022-07-15T04:06:29;9.50;;;6.33;;
6523;SDS011;3295;38.928;-77.052;2022-07-15T04:08:56;8.40;;;6.00;;
6523;SDS011;3295;38.928;-77.052;2022-07-15T04:11:25;12.07;;;6.60;;
6523;SDS011;3295;38.928;-77.052;2022-07-15T04:13:52;8.97;;;6.50;;
6523;SDS011;3295;38.928;-77.052;2022-07-15T04:16:19;8.13;;;6.37;;
6523;SDS011;3295;38.928;-77.052;2022-07-15T04:18:46;8.93;;;6.23;;
6523;SDS011;3295;38.928;-77.052;2022-07-15T04:21:16;9.07;;;6.27;;
6523;SDS011;3295;38.928;-77.052;2022-07-15T04:23:43;8.20;;;6.27;;
6523;SDS011;3295;38.928;-77.052;2022-07-15T04:26:11;9.93;;;6.30;;
6523;SDS011;3295;38.928;-77.052;2022-07-15T04:28:39;8.77;;;6.33;;
6523;SDS011;3295;38.928;-77.052;2022-07-15T04:31:07;8.57;;;6.37;;
6523;SDS011;3295;38.928;-77.052;2022-07-15T04:33:34;10.67;;;6.80;;
6523;SDS011;3295;38.928;-77.052;2022-07-15T04:36:01;9.43;;;6.70;;
6523;SDS011;3295;38.928;-77.052;2022-07-15T04:38:37;8.90;;;6.03;;
6523;SDS011;3295;38.928;-77.052;2022-07-15T04:41:04;9.73;;;6.60;;
6523;SDS011;3295;38.928;-77.052;2022-07-15T04:43:31;10.27;;;6.60;;
6523;SDS011;3295;38.928;-77.052;2022-07-15T04:46:00;8.00;;;5.93;;
6523;SDS011;3295;38.928;-77.052;2022-07-15T04:48:27;9.00;;;6.23;;
6523;SDS011;3295;38.928;-77.052;2022-07-15T04:51:12;8.80;;;6.20;;
6523;SDS011;3295;38.928;-77.052;2022-07-15T04:53:39;8.13;;;6.00;;
6523;SDS011;3295;38.928;-77.052;2022-07-15T04:56:06;11.33;;;6.43;;
6523;SDS011;3295;38.928;-77.052;2022-07-15T04:58:33;9.90;;;6.77;;
6523;SDS011;3295;38.928;-77.052;2022-07-15T05:01:02;8.37;;;5.87;;
6523;SDS011;3295;38.928;-77.052;2022-07-15T05:03:29;8.13;;;5.60;;
6523;SDS011;3295;38.928;-77.052;2022-07-15T05:05:56;9.03;;;6.30;;
6523;SDS011;3295;38.928;-77.052;2022-07-15T05:08:23;9.47;;;5.73;;
6523;SDS011;3295;38.928;-77.052;2022-07-15T05:10:51;10.20;;;6.33;;
6523;SDS011;3295;38.928;-77.052;2022-07-15T05:13:18;8.43;;;6.33;;
6523;SDS011;3295;38.928;-77.052;2022-07-15T05:15:45;9.83;;;6.13;;
6523;SDS011;3295;38.928;-77.052;2022-07-15T05:18:14;9.53;;;6.00;;
6523;SDS011;3295;38.928;-77.052;2022-07-15T05:20:41;9.00;;;6.03;;
6523;SDS011;3295;38.928;-77.052;2022-07-15T05:23:08;8.67;;;6.17;;
6523;SDS011;3295;38.928;-77.052;2022-07-15T05:25:35;8.33;;;6.57;;
6523;SDS011;3295;38.928;-77.052;2022-07-15T05:28:02;10.07;;;6.30;;
6523;SDS011;3295;38.928;-77.052;2022-07-15T05:30:30;8.77;;;6.67;;
6523;SDS011;3295;38.928;-77.052;2022-07-15T05:32:57;8.60;;;6.13;;
6523;SDS011;3295;38.928;-77.052;2022-07-15T05:35:26;9.17;;;6.57;;
6523;SDS011;3295;38.928;-77.052;2022-07-15T05:37:53;9.17;;;6.77;;
6523;SDS011;3295;38.928;-77.052;2022-07-15T05:40:20;9.17;;;6.73;;
6523;SDS011;3295;38.928;-77.052;2022-07-15T05:42:48;10.37;;;7.03;;
6523;SDS011;3295;38.928;-77.052;2022-07-15T05:45:15;11.33;;;6.67;;
6523;SDS011;3295;38.928;-77.052;2022-07-15T05:47:46;9.73;;;6.80;;
6523;SDS011;3295;38.928;-77.052;2022-07-15T05:50:13;7.90;;;6.33;;
6523;SDS011;3295;38.928;-77.052;2022-07-15T05:52:42;8.50;;;6.20;;
6523;SDS011;3295;38.928;-77.052;2022-07-15T05:55:10;9.27;;;6.70;;
6523;SDS011;3295;38.928;-77.052;2022-07-15T05:57:37;9.73;;;6.93;;
6523;SDS011;3295;38.928;-77.052;2022-07-15T06:00:04;11.20;;;6.87;;
6523;SDS011;3295;38.928;-77.052;2022-07-15T06:02:32;8.27;;;6.43;;
6523;SDS011;3295;38.928;-77.052;2022-07-15T06:04:59;10.03;;;6.80;;
6523;SDS011;3295;38.928;-77.052;2022-07-15T06:07:27;11.07;;;6.77;;
6523;SDS011;3295;38.928;-77.052;2022-07-15T06:09:57;9.03;;;6.30;;
6523;SDS011;3295;38.928;-77.052;2022-07-15T06:12:24;10.77;;;6.87;;
6523;SDS011;3295;38.928;-77.052;2022-07-15T06:14:51;7.87;;;5.90;;
6523;SDS011;3295;38.928;-77.052;2022-07-15T06:17:19;9.63;;;6.13;;
6523;SDS011;3295;38.928;-77.052;2022-07-15T06:19:46;8.43;;;6.40;;
6523;SDS011;3295;38.928;-77.052;2022-07-15T06:22:13;10.13;;;6.10;;
6523;SDS011;3295;38.928;-77.052;2022-07-15T06:24:40;7.60;;;5.73;;
6523;SDS011;3295;38.928;-77.052;2022-07-15T06:27:09;9.50;;;6.70;;
6523;SDS011;3295;38.928;-77.052;2022-07-15T06:29:36;9.23;;;6.00;;
6523;SDS011;3295;38.928;-77.052;2022-07-15T06:32:04;9.03;;;6.50;;
6523;SDS011;3295;38.928;-77.052;2022-07-15T06:34:33;9.03;;;6.37;;
6523;SDS011;3295;38.928;-77.052;2022-07-15T06:37:00;9.73;;;6.43;;
6523;SDS011;3295;38.928;-77.052;2022-07-15T06:39:27;8.40;;;6.17;;
6523;SDS011;3295;38.928;-77.052;2022-07-15T06:41:54;7.63;;;5.87;;
6523;SDS011;3295;38.928;-77.052;2022-07-15T06:44:23;9.13;;;5.87;;
6523;SDS011;3295;38.928;-77.052;2022-07-15T06:46:50;7.80;;;5.90;;
6523;SDS011;3295;38.928;-77.052;2022-07-15T06:49:17;8.60;;;5.83;;
6523;SDS011;3295;38.928;-77.052;2022-07-15T06:51:44;7.90;;;5.43;;
6523;SDS011;3295;38.928;-77.052;2022-07-15T06:54:12;6.70;;;5.47;;
6523;SDS011;3295;38.928;-77.052;2022-07-15T06:56:40;7.63;;;5.60;;
6523;SDS011;3295;38.928;-77.052;2022-07-15T06:59:07;8.40;;;5.77;;
6523;SDS011;3295;38.928;-77.052;2022-07-15T07:01:36;9.63;;;5.93;;
6523;SDS011;3295;38.928;-77.052;2022-07-15T07:04:03;10.57;;;5.73;;
6523;SDS011;3295;38.928;-77.052;2022-07-15T07:06:30;8.30;;;6.10;;
6523;SDS011;3295;38.928;-77.052;2022-07-15T07:08:57;8.23;;;6.10;;
6523;SDS011;3295;38.928;-77.052;2022-07-15T07:11:26;8.83;;;6.30;;
6523;SDS011;3295;38.928;-77.052;2022-07-15T07:13:54;10.40;;;6.07;;
6523;SDS011;3295;38.928;-77.052;2022-07-15T07:16:21;9.20;;;6.33;;
6523;SDS011;3295;38.928;-77.052;2022-07-15T07:18:49;8.63;;;6.17;;
6523;SDS011;3295;38.928;-77.052;2022-07-15T07:21:17;8.77;;;6.17;;
6523;SDS011;3295;38.928;-77.052;2022-07-15T07:23:44;7.70;;;5.63;;
6523;SDS011;3295;38.928;-77.052;2022-07-15T07:26:15;8.93;;;5.97;;
6523;SDS011;3295;38.928;-77.052;2022-07-15T07:28:42;11.50;;;5.90;;
6523;SDS011;3295;38.928;-77.052;2022-07-15T07:31:10;10.13;;;6.47;;
6523;SDS011;3295;38.928;-77.052;2022-07-15T07:33:38;11.27;;;6.13;;
6523;SDS011;3295;38.928;-77.052;2022-07-15T07:36:07;8.50;;;6.07;;
6523;SDS011;3295;38.928;-77.052;2022-07-15T07:38:35;8.73;;;6.47;;
6523;SDS011;3295;38.928;-77.052;2022-07-15T07:41:02;8.57;;;5.90;;
6523;SDS011;3295;38.928;-77.052;2022-07-15T07:43:29;10.27;;;6.10;;
6523;SDS011;3295;38.928;-77.052;2022-07-15T07:45:58;7.50;;;5.87;;
6523;SDS011;3295;38.928;-77.052;2022-07-15T07:48:25;9.93;;;5.93;;
6523;SDS011;3295;38.928;-77.052;2022-07-15T07:50:52;9.97;;;5.93;;
6523;SDS011;3295;38.928;-77.052;2022-07-15T07:53:21;8.97;;;5.80;;
6523;SDS011;3295;38.928;-77.052;2022-07-15T07:55:48;8.17;;;5.97;;
6523;SDS011;3295;38.928;-77.052;2022-07-15T07:58:15;9.33;;;6.10;;
6523;SDS011;3295;38.928;-77.052;2022-07-15T08:00:43;9.70;;;5.67;;
6523;SDS011;3295;38.928;-77.052;2022-07-15T08:03:11;8.23;;;5.67;;
6523;SDS011;3295;38.928;-77.052;2022-07-15T08:05:38;13.87;;;6.50;;
6523;SDS011;3295;38.928;-77.052;2022-07-15T08:08:09;9.27;;;6.53;;
6523;SDS011;3295;38.928;-77.052;2022-07-15T08:10:38;9.33;;;6.30;;
6523;SDS011;3295;38.928;-77.052;2022-07-15T08:13:05;8.43;;;5.67;;
6523;SDS011;3295;38.928;-77.052;2022-07-15T08:15:33;8.83;;;6.20;;
6523;SDS011;3295;38.928;-77.052;2022-07-15T08:18:00;8.47;;;6.00;;
6523;SDS011;3295;38.928;-77.052;2022-07-15T08:20:28;9.33;;;6.10;;
6523;SDS011;3295;38.928;-77.052;2022-07-15T08:22:55;9.97;;;6.63;;
6523;SDS011;3295;38.928;-77.052;2022-07-15T08:25:25;9.60;;;6.27;;
6523;SDS011;3295;38.928;-77.052;2022-07-15T08:27:54;8.50;;;6.47;;
6523;SDS011;3295;38.928;-77.052;2022-07-15T08:30:22;9.37;;;6.13;;
6523;SDS011;3295;38.928;-77.052;2022-07-15T08:32:50;10.87;;;6.10;;
6523;SDS011;3295;38.928;-77.052;2022-07-15T08:35:17;9.30;;;6.60;;
6523;SDS011;3295;38.928;-77.052;2022-07-15T08:37:44;10.23;;;6.17;;
6523;SDS011;3295;38.928;-77.052;2022-07-15T08:40:12;9.73;;;6.83;;
6523;SDS011;3295;38.928;-77.052;2022-07-15T08:42:39;10.20;;;6.43;;
6523;SDS011;3295;38.928;-77.052;2022-07-15T08:45:10;9.20;;;6.50;;
6523;SDS011;3295;38.928;-77.052;2022-07-15T08:47:38;10.13;;;6.23;;
6523;SDS011;3295;38.928;-77.052;2022-07-15T08:50:05;10.90;;;6.43;;
6523;SDS011;3295;38.928;-77.052;2022-07-15T08:52:32;9.63;;;5.97;;
6523;SDS011;3295;38.928;-77.052;2022-07-15T08:55:00;10.70;;;6.53;;
6523;SDS011;3295;38.928;-77.052;2022-07-15T08:57:27;9.77;;;6.37;;
6523;SDS011;3295;38.928;-77.052;2022-07-15T08:59:55;10.57;;;6.43;;
6523;SDS011;3295;38.928;-77.052;2022-07-15T09:02:24;9.07;;;6.17;;
6523;SDS011;3295;38.928;-77.052;2022-07-15T09:07:50;10.53;;;6.63;;
6523;SDS011;3295;38.928;-77.052;2022-07-15T09:10:19;9.13;;;6.30;;
6523;SDS011;3295;38.928;-77.052;2022-07-15T09:12:48;10.60;;;6.50;;
6523;SDS011;3295;38.928;-77.052;2022-07-15T09:15:28;9.23;;;6.30;;
6523;SDS011;3295;38.928;-77.052;2022-07-15T09:18:03;8.87;;;6.30;;
6523;SDS011;3295;38.928;-77.052;2022-07-15T09:20:31;8.40;;;6.30;;
6523;SDS011;3295;38.928;-77.052;2022-07-15T09:22:59;9.23;;;6.20;;
6523;SDS011;3295;38.928;-77.052;2022-07-15T09:25:26;9.97;;;6.40;;
6523;SDS011;3295;38.928;-77.052;2022-07-15T09:27:54;9.23;;;6.20;;
6523;SDS011;3295;38.928;-77.052;2022-07-15T09:30:23;10.00;;;6.30;;
6523;SDS011;3295;38.928;-77.052;2022-07-15T09:33:10;9.60;;;6.37;;
6523;SDS011;3295;38.928;-77.052;2022-07-15T09:36:01;10.37;;;6.77;;
6523;SDS011;3295;38.928;-77.052;2022-07-15T09:38:29;10.17;;;6.17;;
6523;SDS011;3295;38.928;-77.052;2022-07-15T09:40:57;8.77;;;6.50;;
6523;SDS011;3295;38.928;-77.052;2022-07-15T09:43:24;11.70;;;6.43;;
6523;SDS011;3295;38.928;-77.052;2022-07-15T09:45:56;12.47;;;6.50;;
6523;SDS011;3295;38.928;-77.052;2022-07-15T09:48:25;10.00;;;6.53;;
6523;SDS011;3295;38.928;-77.052;2022-07-15T09:50:57;11.90;;;6.33;;
6523;SDS011;3295;38.928;-77.052;2022-07-15T09:53:25;9.27;;;6.50;;
6523;SDS011;3295;38.928;-77.052;2022-07-15T09:55:52;10.20;;;6.77;;
6523;SDS011;3295;38.928;-77.052;2022-07-15T09:58:19;11.77;;;6.80;;
6523;SDS011;3295;38.928;-77.052;2022-07-15T10:00:47;10.50;;;6.40;;
6523;SDS011;3295;38.928;-77.052;2022-07-15T10:03:16;9.13;;;6.40;;
6523;SDS011;3295;38.928;-77.052;2022-07-15T10:05:45;8.27;;;6.13;;
6523;SDS011;3295;38.928;-77.052;2022-07-15T10:08:13;11.50;;;6.50;;
6523;SDS011;3295;38.928;-77.052;2022-07-15T10:10:41;9.13;;;6.50;;
6523;SDS011;3295;38.928;-77.052;2022-07-15T10:13:11;9.40;;;6.60;;
6523;SDS011;3295;38.928;-77.052;2022-07-15T10:15:42;11.47;;;6.43;;
6523;SDS011;3295;38.928;-77.052;2022-07-15T10:18:16;10.10;;;6.20;;
6523;SDS011;3295;38.928;-77.052;2022-07-15T10:20:54;9.03;;;6.40;;
6523;SDS011;3295;38.928;-77.052;2022-07-15T10:23:36;9.60;;;6.50;;
6523;SDS011;3295;38.928;-77.052;2022-07-15T10:26:12;8.30;;;6.30;;
6523;SDS011;3295;38.928;-77.052;2022-07-15T10:28:47;11.53;;;6.67;;
6523;SDS011;3295;38.928;-77.052;2022-07-15T10:31:16;10.63;;;6.40;;
6523;SDS011;3295;38.928;-77.052;2022-07-15T10:36:27;9.33;;;6.10;;
6523;SDS011;3295;38.928;-77.052;2022-07-15T10:39:04;10.67;;;6.53;;
6523;SDS011;3295;38.928;-77.052;2022-07-15T10:41:47;12.00;;;6.63;;
6523;SDS011;3295;38.928;-77.052;2022-07-15T10:44:14;8.83;;;6.33;;
6523;SDS011;3295;38.928;-77.052;2022-07-15T10:46:41;9.30;;;6.30;;
6523;SDS011;3295;38.928;-77.052;2022-07-15T10:49:27;11.97;;;6.53;;
6523;SDS011;3295;38.928;-77.052;2022-07-15T10:51:57;10.30;;;6.33;;
6523;SDS011;3295;38.928;-77.052;2022-07-15T10:54:39;10.47;;;6.43;;
6523;SDS011;3295;38.928;-77.052;2022-07-15T10:57:08;11.63;;;6.43;;
6523;SDS011;3295;38.928;-77.052;2022-07-15T10:59:35;9.03;;;6.03;;
6523;SDS011;3295;38.928;-77.052;2022-07-15T11:02:13;9.97;;;6.10;;
6523;SDS011;3295;38.928;-77.052;2022-07-15T11:04:42;9.10;;;6.30;;
6523;SDS011;3295;38.928;-77.052;2022-07-15T11:07:29;10.57;;;6.33;;
6523;SDS011;3295;38.928;-77.052;2022-07-15T11:10:15;9.20;;;6.20;;
6523;SDS011;3295;38.928;-77.052;2022-07-15T11:12:56;9.23;;;6.40;;
6523;SDS011;3295;38.928;-77.052;2022-07-15T11:15:24;12.13;;;7.20;;
6523;SDS011;3295;38.928;-77.052;2022-07-15T11:17:52;9.30;;;6.47;;
6523;SDS011;3295;38.928;-77.052;2022-07-15T11:20:22;9.63;;;6.17;;
6523;SDS011;3295;38.928;-77.052;2022-07-15T11:22:52;10.60;;;6.73;;
6523;SDS011;3295;38.928;-77.052;2022-07-15T11:25:20;8.53;;;6.37;;
6523;SDS011;3295;38.928;-77.052;2022-07-15T11:27:57;9.30;;;6.50;;
6523;SDS011;3295;38.928;-77.052;2022-07-15T11:30:26;9.23;;;6.43;;
6523;SDS011;3295;38.928;-77.052;2022-07-15T11:32:57;8.50;;;5.93;;
6523;SDS011;3295;38.928;-77.052;2022-07-15T11:35:24;9.00;;;5.80;;
6523;SDS011;3295;38.928;-77.052;2022-07-15T11:37:58;7.83;;;5.63;;
6523;SDS011;3295;38.928;-77.052;2022-07-15T11:40:26;9.17;;;5.70;;
6523;SDS011;3295;38.928;-77.052;2022-07-15T11:43:11;10.23;;;5.80;;
6523;SDS011;3295;38.928;-77.052;2022-07-15T11:45:56;8.67;;;6.03;;
6523;SDS011;3295;38.928;-77.052;2022-07-15T11:48:23;8.50;;;5.87;;
6523;SDS011;3295;38.928;-77.052;2022-07-15T11:50:51;8.07;;;5.67;;
6523;SDS011;3295;38.928;-77.052;2022-07-15T11:53:20;9.27;;;5.57;;
6523;SDS011;3295;38.928;-77.052;2022-07-15T11:55:51;10.07;;;6.00;;
6523;SDS011;3295;38.928;-77.052;2022-07-15T11:58:26;8.97;;;6.10;;
6523;SDS011;3295;38.928;-77.052;2022-07-15T12:00:56;9.50;;;5.97;;
6523;SDS011;3295;38.928;-77.052;2022-07-15T12:03:23;9.03;;;5.60;;
6523;SDS011;3295;38.928;-77.052;2022-07-15T12:06:00;8.40;;;5.17;;
6523;SDS011;3295;38.928;-77.052;2022-07-15T12:08:39;8.07;;;5.60;;
6523;SDS011;3295;38.928;-77.052;2022-07-15T12:11:18;8.13;;;5.10;;
6523;SDS011;3295;38.928;-77.052;2022-07-15T12:13:47;9.10;;;5.20;;
6523;SDS011;3295;38.928;-77.052;2022-07-15T12:16:17;9.30;;;5.10;;
6523;SDS011;3295;38.928;-77.052;2022-07-15T12:18:45;8.23;;;4.93;;
6523;SDS011;3295;38.928;-77.052;2022-07-15T12:21:15;7.40;;;5.10;;
6523;SDS011;3295;38.928;-77.052;2022-07-15T12:26:26;9.00;;;5.50;;
6523;SDS011;3295;38.928;-77.052;2022-07-15T12:28:54;7.90;;;5.30;;
6523;SDS011;3295;38.928;-77.052;2022-07-15T12:31:25;8.50;;;5.37;;
6523;SDS011;3295;38.928;-77.052;2022-07-15T12:33:53;8.70;;;5.23;;
6523;SDS011;3295;38.928;-77.052;2022-07-15T12:36:21;9.47;;;5.80;;
6523;SDS011;3295;38.928;-77.052;2022-07-15T12:39:05;9.67;;;5.47;;
6523;SDS011;3295;38.928;-77.052;2022-07-15T12:41:34;10.23;;;5.60;;
6523;SDS011;3295;38.928;-77.052;2022-07-15T12:44:02;7.93;;;5.07;;
6523;SDS011;3295;38.928;-77.052;2022-07-15T12:51:58;9.30;;;5.30;;
6523;SDS011;3295;38.928;-77.052;2022-07-15T12:54:25;9.97;;;4.90;;
6523;SDS011;3295;38.928;-77.052;2022-07-15T12:56:57;7.47;;;4.90;;
6523;SDS011;3295;38.928;-77.052;2022-07-15T12:59:24;6.40;;;4.73;;
6523;SDS011;3295;38.928;-77.052;2022-07-15T13:02:02;7.57;;;4.93;;
6523;SDS011;3295;38.928;-77.052;2022-07-15T13:04:29;7.20;;;4.50;;
6523;SDS011;3295;38.928;-77.052;2022-07-15T13:06:56;8.60;;;5.30;;
6523;SDS011;3295;38.928;-77.052;2022-07-15T13:09:24;7.27;;;4.90;;
6523;SDS011;3295;38.928;-77.052;2022-07-15T13:11:58;9.27;;;4.83;;
6523;SDS011;3295;38.928;-77.052;2022-07-15T13:14:28;8.43;;;5.10;;
6523;SDS011;3295;38.928;-77.052;2022-07-15T13:16:55;7.83;;;5.00;;
6523;SDS011;3295;38.928;-77.052;2022-07-15T13:19:23;8.13;;;5.00;;
6523;SDS011;3295;38.928;-77.052;2022-07-15T13:21:50;8.57;;;5.17;;
6523;SDS011;3295;38.928;-77.052;2022-07-15T13:24:17;7.73;;;5.23;;
6523;SDS011;3295;38.928;-77.052;2022-07-15T13:26:45;8.50;;;5.50;;
6523;SDS011;3295;38.928;-77.052;2022-07-15T13:29:13;8.40;;;5.03;;
6523;SDS011;3295;38.928;-77.052;2022-07-15T13:31:41;7.77;;;5.10;;
6523;SDS011;3295;38.928;-77.052;2022-07-15T13:34:08;9.20;;;4.93;;
6523;SDS011;3295;38.928;-77.052;2022-07-15T13:36:36;8.00;;;5.30;;
6523;SDS011;3295;38.928;-77.052;2022-07-15T13:39:03;8.07;;;5.23;;
6523;SDS011;3295;38.928;-77.052;2022-07-15T13:41:30;7.73;;;5.03;;
6523;SDS011;3295;38.928;-77.052;2022-07-15T13:43:57;8.93;;;5.17;;
6523;SDS011;3295;38.928;-77.052;2022-07-15T13:46:26;7.90;;;4.80;;
6523;SDS011;3295;38.928;-77.052;2022-07-15T13:48:54;8.43;;;4.90;;
6523;SDS011;3295;38.928;-77.052;2022-07-15T13:51:21;7.03;;;4.87;;
6523;SDS011;3295;38.928;-77.052;2022-07-15T13:53:50;7.97;;;5.27;;
6523;SDS011;3295;38.928;-77.052;2022-07-15T13:56:18;8.33;;;5.47;;
6523;SDS011;3295;38.928;-77.052;2022-07-15T13:58:45;7.37;;;4.90;;
6523;SDS011;3295;38.928;-77.052;2022-07-15T14:01:13;8.23;;;5.20;;
6523;SDS011;3295;38.928;-77.052;2022-07-15T14:03:42;7.33;;;4.37;;
6523;SDS011;3295;38.928;-77.052;2022-07-15T14:06:10;7.03;;;4.77;;
6523;SDS011;3295;38.928;-77.052;2022-07-15T14:08:37;8.80;;;5.57;;
6523;SDS011;3295;38.928;-77.052;2022-07-15T14:11:04;7.13;;;4.70;;
6523;SDS011;3295;38.928;-77.052;2022-07-15T14:13:32;7.10;;;4.80;;
6523;SDS011;3295;38.928;-77.052;2022-07-15T14:15:59;7.20;;;4.73;;
6523;SDS011;3295;38.928;-77.052;2022-07-15T14:18:26;7.13;;;4.63;;
6523;SDS011;3295;38.928;-77.052;2022-07-15T14:21:13;6.60;;;4.90;;
6523;SDS011;3295;38.928;-77.052;2022-07-15T14:23:41;7.17;;;4.80;;
6523;SDS011;3295;38.928;-77.052;2022-07-15T14:26:08;7.90;;;4.93;;
6523;SDS011;3295;38.928;-77.052;2022-07-15T14:28:36;7.77;;;5.13;;
6523;SDS011;3295;38.928;-77.052;2022-07-15T14:31:04;7.80;;;4.70;;
6523;SDS011;3295;38.928;-77.052;2022-07-15T14:33:31;8.20;;;4.93;;
6523;SDS011;3295;38.928;-77.052;2022-07-15T14:35:59;7.27;;;4.73;;
6523;SDS011;3295;38.928;-77.052;2022-07-15T14:38:28;7.60;;;5.13;;
6523;SDS011;3295;38.928;-77.052;2022-07-15T14:40:55;8.57;;;5.27;;
6523;SDS011;3295;38.928;-77.052;2022-07-15T14:43:23;7.00;;;4.70;;
6523;SDS011;3295;38.928;-77.052;2022-07-15T14:45:50;8.27;;;5.13;;
6523;SDS011;3295;38.928;-77.052;2022-07-15T14:48:17;6.73;;;4.90;;
6523;SDS011;3295;38.928;-77.052;2022-07-15T14:50:44;7.73;;;4.57;;
6523;SDS011;3295;38.928;-77.052;2022-07-15T14:53:12;7.67;;;5.00;;
6523;SDS011;3295;38.928;-77.052;2022-07-15T14:55:40;7.93;;;5.67;;
6523;SDS011;3295;38.928;-77.052;2022-07-15T14:58:08;8.93;;;5.40;;
6523;SDS011;3295;38.928;-77.052;2022-07-15T15:00:38;7.10;;;4.77;;
6523;SDS011;3295;38.928;-77.052;2022-07-15T15:03:05;8.40;;;5.40;;
6523;SDS011;3295;38.928;-77.052;2022-07-15T15:05:32;8.17;;;5.30;;
6523;SDS011;3295;38.928;-77.052;2022-07-15T15:08:00;8.90;;;5.23;;
6523;SDS011;3295;38.928;-77.052;2022-07-15T15:10:27;6.87;;;4.40;;